Terminal Aerodrome Forecast
Issued by NWS

Home | Current Version | Previous Version | Text Only | Print | Product List | Glossary On
Versions: 1 2 3 4 5 6 7 8 9 10 11 12 13 14 15 16 17 18 19 20
000
FTUS46 KPDT 260500
TAFALW
TAF
KALW 260530Z 2606/2706 21009KT 1/2SM FG OVC002
     FM261600 21009KT 3SM BR SCT002 BKN040
     FM261800 20009KT P6SM SCT040 BKN200=

USA.gov is the U.S. government's official web portal to all federal, state and local government web resources and services.